sensor_id;sensor_type;location;lat;lon;timestamp;P1;durP1;ratioP1;P2;durP2;ratioP2
48052;SDS011;33824;51.600;5.718;2023-02-04T00:01:31;14.55;;;2.40;;
48052;SDS011;33824;51.600;5.718;2023-02-04T00:03:57;15.25;;;2.17;;
48052;SDS011;33824;51.600;5.718;2023-02-04T00:06:23;22.70;;;3.15;;
48052;SDS011;33824;51.600;5.718;2023-02-04T00:08:48;17.60;;;3.00;;
48052;SDS011;33824;51.600;5.718;2023-02-04T00:11:14;27.58;;;3.90;;
48052;SDS011;33824;51.600;5.718;2023-02-04T00:13:39;17.83;;;2.42;;
48052;SDS011;33824;51.600;5.718;2023-02-04T00:16:05;16.63;;;2.67;;
48052;SDS011;33824;51.600;5.718;2023-02-04T00:18:30;24.25;;;2.63;;
48052;SDS011;33824;51.600;5.718;2023-02-04T00:20:56;20.55;;;3.40;;
48052;SDS011;33824;51.600;5.718;2023-02-04T00:23:21;18.10;;;3.70;;
48052;SDS011;33824;51.600;5.718;2023-02-04T00:25:47;20.00;;;3.97;;
48052;SDS011;33824;51.600;5.718;2023-02-04T00:28:12;23.67;;;2.67;;
48052;SDS011;33824;51.600;5.718;2023-02-04T00:30:38;19.23;;;2.67;;
48052;SDS011;33824;51.600;5.718;2023-02-04T00:33:03;14.68;;;2.28;;
48052;SDS011;33824;51.600;5.718;2023-02-04T00:35:29;20.13;;;2.90;;
48052;SDS011;33824;51.600;5.718;2023-02-04T00:37:55;12.52;;;2.95;;
48052;SDS011;33824;51.600;5.718;2023-02-04T00:40:20;27.60;;;3.28;;
48052;SDS011;33824;51.600;5.718;2023-02-04T00:42:46;20.75;;;2.85;;
48052;SDS011;33824;51.600;5.718;2023-02-04T00:45:12;18.02;;;3.38;;
48052;SDS011;33824;51.600;5.718;2023-02-04T00:47:37;15.88;;;2.33;;
48052;SDS011;33824;51.600;5.718;2023-02-04T00:50:03;19.30;;;2.63;;
48052;SDS011;33824;51.600;5.718;2023-02-04T00:52:29;19.50;;;3.75;;
48052;SDS011;33824;51.600;5.718;2023-02-04T00:54:55;14.65;;;2.80;;
48052;SDS011;33824;51.600;5.718;2023-02-04T00:57:21;13.15;;;2.58;;
48052;SDS011;33824;51.600;5.718;2023-02-04T00:59:46;14.50;;;2.17;;
48052;SDS011;33824;51.600;5.718;2023-02-04T01:02:14;16.70;;;2.97;;
48052;SDS011;33824;51.600;5.718;2023-02-04T01:04:40;11.85;;;2.53;;
48052;SDS011;33824;51.600;5.718;2023-02-04T01:07:06;14.95;;;2.65;;
48052;SDS011;33824;51.600;5.718;2023-02-04T01:09:31;15.60;;;2.33;;
48052;SDS011;33824;51.600;5.718;2023-02-04T01:11:58;18.45;;;2.53;;
48052;SDS011;33824;51.600;5.718;2023-02-04T01:14:23;15.90;;;3.38;;
48052;SDS011;33824;51.600;5.718;2023-02-04T01:16:49;20.00;;;2.30;;
48052;SDS011;33824;51.600;5.718;2023-02-04T01:19:14;24.30;;;2.55;;
48052;SDS011;33824;51.600;5.718;2023-02-04T01:21:40;19.60;;;2.50;;
48052;SDS011;33824;51.600;5.718;2023-02-04T01:24:06;18.15;;;2.85;;
48052;SDS011;33824;51.600;5.718;2023-02-04T01:26:31;16.40;;;2.80;;
48052;SDS011;33824;51.600;5.718;2023-02-04T01:28:57;25.20;;;2.67;;
48052;SDS011;33824;51.600;5.718;2023-02-04T01:31:23;21.58;;;2.58;;
48052;SDS011;33824;51.600;5.718;2023-02-04T01:33:48;15.88;;;2.65;;
48052;SDS011;33824;51.600;5.718;2023-02-04T01:36:14;13.23;;;2.13;;
48052;SDS011;33824;51.600;5.718;2023-02-04T01:38:46;15.48;;;3.17;;
48052;SDS011;33824;51.600;5.718;2023-02-04T01:41:12;13.80;;;2.70;;
48052;SDS011;33824;51.600;5.718;2023-02-04T01:43:39;20.85;;;3.30;;
48052;SDS011;33824;51.600;5.718;2023-02-04T01:46:04;13.60;;;1.95;;
48052;SDS011;33824;51.600;5.718;2023-02-04T01:48:30;16.38;;;2.83;;
48052;SDS011;33824;51.600;5.718;2023-02-04T01:51:00;21.52;;;3.88;;
48052;SDS011;33824;51.600;5.718;2023-02-04T01:53:28;23.63;;;2.70;;
48052;SDS011;33824;51.600;5.718;2023-02-04T01:55:54;20.25;;;2.55;;
48052;SDS011;33824;51.600;5.718;2023-02-04T01:58:19;17.10;;;2.75;;
48052;SDS011;33824;51.600;5.718;2023-02-04T02:00:48;17.40;;;2.45;;
48052;SDS011;33824;51.600;5.718;2023-02-04T02:03:13;23.30;;;3.10;;
48052;SDS011;33824;51.600;5.718;2023-02-04T02:05:40;33.75;;;3.55;;
48052;SDS011;33824;51.600;5.718;2023-02-04T02:08:09;19.70;;;3.40;;
48052;SDS011;33824;51.600;5.718;2023-02-04T02:10:35;15.02;;;2.72;;
48052;SDS011;33824;51.600;5.718;2023-02-04T02:13:03;23.15;;;3.58;;
48052;SDS011;33824;51.600;5.718;2023-02-04T02:15:30;18.67;;;3.35;;
48052;SDS011;33824;51.600;5.718;2023-02-04T02:17:56;20.83;;;3.28;;
48052;SDS011;33824;51.600;5.718;2023-02-04T02:20:22;19.42;;;3.90;;
48052;SDS011;33824;51.600;5.718;2023-02-04T02:23:01;15.80;;;2.50;;
48052;SDS011;33824;51.600;5.718;2023-02-04T02:25:43;24.88;;;2.78;;
48052;SDS011;33824;51.600;5.718;2023-02-04T02:28:11;21.40;;;3.97;;
48052;SDS011;33824;51.600;5.718;2023-02-04T02:30:39;21.60;;;3.13;;
48052;SDS011;33824;51.600;5.718;2023-02-04T02:33:06;18.02;;;2.65;;
48052;SDS011;33824;51.600;5.718;2023-02-04T02:35:32;24.55;;;3.80;;
48052;SDS011;33824;51.600;5.718;2023-02-04T02:37:58;15.00;;;2.67;;
48052;SDS011;33824;51.600;5.718;2023-02-04T02:40:24;19.80;;;3.22;;
48052;SDS011;33824;51.600;5.718;2023-02-04T02:42:50;24.73;;;3.97;;
48052;SDS011;33824;51.600;5.718;2023-02-04T02:45:24;12.30;;;2.58;;
48052;SDS011;33824;51.600;5.718;2023-02-04T02:47:53;18.58;;;3.22;;
48052;SDS011;33824;51.600;5.718;2023-02-04T02:50:22;19.85;;;4.13;;
48052;SDS011;33824;51.600;5.718;2023-02-04T02:52:51;24.63;;;3.45;;
48052;SDS011;33824;51.600;5.718;2023-02-04T02:55:18;13.80;;;2.22;;
48052;SDS011;33824;51.600;5.718;2023-02-04T02:57:46;21.75;;;3.38;;
48052;SDS011;33824;51.600;5.718;2023-02-04T03:00:31;28.55;;;3.90;;
48052;SDS011;33824;51.600;5.718;2023-02-04T03:03:01;21.40;;;4.07;;
48052;SDS011;33824;51.600;5.718;2023-02-04T03:05:31;18.52;;;3.00;;
48052;SDS011;33824;51.600;5.718;2023-02-04T03:08:00;15.80;;;3.28;;
48052;SDS011;33824;51.600;5.718;2023-02-04T03:10:26;18.60;;;4.43;;
48052;SDS011;33824;51.600;5.718;2023-02-04T03:12:52;16.00;;;2.70;;
48052;SDS011;33824;51.600;5.718;2023-02-04T03:15:17;17.17;;;3.40;;
48052;SDS011;33824;51.600;5.718;2023-02-04T03:17:43;17.27;;;2.47;;
48052;SDS011;33824;51.600;5.718;2023-02-04T03:20:10;29.02;;;4.00;;
48052;SDS011;33824;51.600;5.718;2023-02-04T03:22:36;23.90;;;3.28;;
48052;SDS011;33824;51.600;5.718;2023-02-04T03:25:02;31.08;;;4.03;;
48052;SDS011;33824;51.600;5.718;2023-02-04T03:27:27;17.80;;;3.22;;
48052;SDS011;33824;51.600;5.718;2023-02-04T03:29:53;19.25;;;3.13;;
48052;SDS011;33824;51.600;5.718;2023-02-04T03:32:19;20.55;;;3.15;;
48052;SDS011;33824;51.600;5.718;2023-02-04T03:34:44;22.48;;;4.38;;
48052;SDS011;33824;51.600;5.718;2023-02-04T03:37:11;18.75;;;3.00;;
48052;SDS011;33824;51.600;5.718;2023-02-04T03:39:36;24.30;;;3.78;;
48052;SDS011;33824;51.600;5.718;2023-02-04T03:42:02;20.42;;;4.22;;
48052;SDS011;33824;51.600;5.718;2023-02-04T03:44:28;16.98;;;3.95;;
48052;SDS011;33824;51.600;5.718;2023-02-04T03:46:54;18.67;;;3.63;;
48052;SDS011;33824;51.600;5.718;2023-02-04T03:49:21;19.48;;;3.35;;
48052;SDS011;33824;51.600;5.718;2023-02-04T03:51:47;26.05;;;3.90;;
48052;SDS011;33824;51.600;5.718;2023-02-04T03:54:12;21.77;;;3.40;;
48052;SDS011;33824;51.600;5.718;2023-02-04T03:56:38;18.73;;;3.42;;
48052;SDS011;33824;51.600;5.718;2023-02-04T03:59:03;18.50;;;3.20;;
48052;SDS011;33824;51.600;5.718;2023-02-04T04:01:29;18.90;;;3.60;;
48052;SDS011;33824;51.600;5.718;2023-02-04T04:03:55;22.92;;;4.13;;
48052;SDS011;33824;51.600;5.718;2023-02-04T04:06:20;24.73;;;3.55;;
48052;SDS011;33824;51.600;5.718;2023-02-04T04:08:46;14.95;;;3.67;;
48052;SDS011;33824;51.600;5.718;2023-02-04T04:11:12;23.30;;;4.00;;
48052;SDS011;33824;51.600;5.718;2023-02-04T04:13:37;16.10;;;3.30;;
48052;SDS011;33824;51.600;5.718;2023-02-04T04:16:03;20.45;;;4.25;;
48052;SDS011;33824;51.600;5.718;2023-02-04T04:18:29;25.63;;;3.78;;
48052;SDS011;33824;51.600;5.718;2023-02-04T04:20:55;20.77;;;3.92;;
48052;SDS011;33824;51.600;5.718;2023-02-04T04:23:20;18.00;;;3.70;;
48052;SDS011;33824;51.600;5.718;2023-02-04T04:25:48;22.95;;;3.80;;
48052;SDS011;33824;51.600;5.718;2023-02-04T04:28:13;17.35;;;3.22;;
48052;SDS011;33824;51.600;5.718;2023-02-04T04:30:39;21.35;;;3.42;;
48052;SDS011;33824;51.600;5.718;2023-02-04T04:33:04;23.85;;;3.97;;
48052;SDS011;33824;51.600;5.718;2023-02-04T04:35:30;18.33;;;3.47;;
48052;SDS011;33824;51.600;5.718;2023-02-04T04:37:55;25.27;;;4.53;;
48052;SDS011;33824;51.600;5.718;2023-02-04T04:40:21;23.65;;;5.00;;
48052;SDS011;33824;51.600;5.718;2023-02-04T04:42:46;25.80;;;4.65;;
48052;SDS011;33824;51.600;5.718;2023-02-04T04:45:13;26.73;;;4.78;;
48052;SDS011;33824;51.600;5.718;2023-02-04T04:47:38;29.00;;;4.55;;
48052;SDS011;33824;51.600;5.718;2023-02-04T04:50:04;17.95;;;3.85;;
48052;SDS011;33824;51.600;5.718;2023-02-04T04:52:30;19.67;;;4.18;;
48052;SDS011;33824;51.600;5.718;2023-02-04T04:54:55;27.33;;;3.70;;
48052;SDS011;33824;51.600;5.718;2023-02-04T04:57:21;35.08;;;5.20;;
48052;SDS011;33824;51.600;5.718;2023-02-04T04:59:47;23.38;;;4.55;;
48052;SDS011;33824;51.600;5.718;2023-02-04T05:02:12;26.08;;;4.68;;
48052;SDS011;33824;51.600;5.718;2023-02-04T05:04:38;27.08;;;5.43;;
48052;SDS011;33824;51.600;5.718;2023-02-04T05:07:04;29.05;;;4.63;;
48052;SDS011;33824;51.600;5.718;2023-02-04T05:09:29;25.98;;;6.22;;
48052;SDS011;33824;51.600;5.718;2023-02-04T05:11:55;23.92;;;5.38;;
48052;SDS011;33824;51.600;5.718;2023-02-04T05:14:21;30.52;;;5.32;;
48052;SDS011;33824;51.600;5.718;2023-02-04T05:16:46;23.58;;;4.25;;
48052;SDS011;33824;51.600;5.718;2023-02-04T05:19:12;17.73;;;4.13;;
48052;SDS011;33824;51.600;5.718;2023-02-04T05:21:37;16.15;;;3.50;;
48052;SDS011;33824;51.600;5.718;2023-02-04T05:24:03;24.35;;;4.90;;
48052;SDS011;33824;51.600;5.718;2023-02-04T05:26:30;20.35;;;3.67;;
48052;SDS011;33824;51.600;5.718;2023-02-04T05:29:00;31.48;;;5.65;;
48052;SDS011;33824;51.600;5.718;2023-02-04T05:31:26;24.33;;;4.68;;
48052;SDS011;33824;51.600;5.718;2023-02-04T05:33:51;22.02;;;4.88;;
48052;SDS011;33824;51.600;5.718;2023-02-04T05:36:18;22.50;;;4.07;;
48052;SDS011;33824;51.600;5.718;2023-02-04T05:38:43;29.13;;;4.95;;
48052;SDS011;33824;51.600;5.718;2023-02-04T05:41:09;19.98;;;4.47;;
48052;SDS011;33824;51.600;5.718;2023-02-04T05:43:35;20.98;;;4.50;;
48052;SDS011;33824;51.600;5.718;2023-02-04T05:46:00;24.17;;;5.22;;
48052;SDS011;33824;51.600;5.718;2023-02-04T05:48:27;30.08;;;4.68;;
48052;SDS011;33824;51.600;5.718;2023-02-04T05:50:52;18.83;;;4.25;;
48052;SDS011;33824;51.600;5.718;2023-02-04T05:53:18;25.38;;;5.25;;
48052;SDS011;33824;51.600;5.718;2023-02-04T05:55:43;29.33;;;4.72;;
48052;SDS011;33824;51.600;5.718;2023-02-04T05:58:09;33.10;;;6.60;;
48052;SDS011;33824;51.600;5.718;2023-02-04T06:00:34;28.83;;;6.50;;
48052;SDS011;33824;51.600;5.718;2023-02-04T06:03:00;21.60;;;5.47;;
48052;SDS011;33824;51.600;5.718;2023-02-04T06:05:25;19.63;;;5.25;;
48052;SDS011;33824;51.600;5.718;2023-02-04T06:07:51;22.08;;;4.55;;
48052;SDS011;33824;51.600;5.718;2023-02-04T06:10:16;24.50;;;4.63;;
48052;SDS011;33824;51.600;5.718;2023-02-04T06:12:42;26.45;;;5.20;;
48052;SDS011;33824;51.600;5.718;2023-02-04T06:15:07;30.45;;;6.43;;
48052;SDS011;33824;51.600;5.718;2023-02-04T06:17:34;27.52;;;5.18;;
48052;SDS011;33824;51.600;5.718;2023-02-04T06:19:59;23.20;;;6.50;;
48052;SDS011;33824;51.600;5.718;2023-02-04T06:22:25;26.52;;;4.90;;
48052;SDS011;33824;51.600;5.718;2023-02-04T06:24:51;28.80;;;6.72;;
48052;SDS011;33824;51.600;5.718;2023-02-04T06:27:16;38.00;;;5.15;;
48052;SDS011;33824;51.600;5.718;2023-02-04T06:29:50;28.88;;;6.22;;
48052;SDS011;33824;51.600;5.718;2023-02-04T06:32:17;31.08;;;5.45;;
48052;SDS011;33824;51.600;5.718;2023-02-04T06:34:43;28.55;;;5.85;;
48052;SDS011;33824;51.600;5.718;2023-02-04T06:37:09;38.15;;;6.32;;
48052;SDS011;33824;51.600;5.718;2023-02-04T06:39:35;37.13;;;5.78;;
48052;SDS011;33824;51.600;5.718;2023-02-04T06:42:01;34.88;;;6.07;;
48052;SDS011;33824;51.600;5.718;2023-02-04T06:44:26;34.28;;;6.70;;
48052;SDS011;33824;51.600;5.718;2023-02-04T06:46:52;36.72;;;7.10;;
48052;SDS011;33824;51.600;5.718;2023-02-04T06:49:18;46.63;;;7.15;;
48052;SDS011;33824;51.600;5.718;2023-02-04T06:51:43;33.17;;;6.88;;
48052;SDS011;33824;51.600;5.718;2023-02-04T06:54:08;48.78;;;7.45;;
48052;SDS011;33824;51.600;5.718;2023-02-04T06:56:34;44.17;;;6.45;;
48052;SDS011;33824;51.600;5.718;2023-02-04T06:59:00;41.88;;;7.07;;
48052;SDS011;33824;51.600;5.718;2023-02-04T07:01:25;43.78;;;7.28;;
48052;SDS011;33824;51.600;5.718;2023-02-04T07:03:51;25.45;;;6.10;;
48052;SDS011;33824;51.600;5.718;2023-02-04T07:06:16;39.63;;;7.10;;
48052;SDS011;33824;51.600;5.718;2023-02-04T07:08:42;34.95;;;6.65;;
48052;SDS011;33824;51.600;5.718;2023-02-04T07:11:07;39.10;;;5.85;;
48052;SDS011;33824;51.600;5.718;2023-02-04T07:13:35;28.77;;;5.90;;
48052;SDS011;33824;51.600;5.718;2023-02-04T07:16:01;35.92;;;6.40;;
48052;SDS011;33824;51.600;5.718;2023-02-04T07:18:27;42.78;;;6.65;;
48052;SDS011;33824;51.600;5.718;2023-02-04T07:20:52;32.95;;;6.15;;
48052;SDS011;33824;51.600;5.718;2023-02-04T07:23:18;35.95;;;6.53;;
48052;SDS011;33824;51.600;5.718;2023-02-04T07:25:45;23.50;;;6.47;;
48052;SDS011;33824;51.600;5.718;2023-02-04T07:28:10;30.02;;;6.85;;
48052;SDS011;33824;51.600;5.718;2023-02-04T07:30:36;38.05;;;8.68;;
48052;SDS011;33824;51.600;5.718;2023-02-04T07:33:02;35.33;;;8.23;;
48052;SDS011;33824;51.600;5.718;2023-02-04T07:35:28;30.55;;;8.13;;
48052;SDS011;33824;51.600;5.718;2023-02-04T07:37:53;27.95;;;7.95;;
48052;SDS011;33824;51.600;5.718;2023-02-04T07:40:19;28.33;;;7.72;;
48052;SDS011;33824;51.600;5.718;2023-02-04T07:42:45;27.13;;;7.80;;
48052;SDS011;33824;51.600;5.718;2023-02-04T07:45:11;26.55;;;7.30;;
48052;SDS011;33824;51.600;5.718;2023-02-04T07:47:36;26.88;;;7.38;;
48052;SDS011;33824;51.600;5.718;2023-02-04T07:50:02;31.05;;;8.43;;
48052;SDS011;33824;51.600;5.718;2023-02-04T07:52:28;32.75;;;8.55;;
48052;SDS011;33824;51.600;5.718;2023-02-04T07:54:54;37.15;;;7.35;;
48052;SDS011;33824;51.600;5.718;2023-02-04T07:57:20;25.73;;;7.65;;
48052;SDS011;33824;51.600;5.718;2023-02-04T07:59:45;28.65;;;8.38;;
48052;SDS011;33824;51.600;5.718;2023-02-04T08:02:11;29.95;;;8.43;;
48052;SDS011;33824;51.600;5.718;2023-02-04T08:04:37;28.50;;;8.27;;
48052;SDS011;33824;51.600;5.718;2023-02-04T08:07:03;24.58;;;8.48;;
48052;SDS011;33824;51.600;5.718;2023-02-04T08:09:29;20.60;;;8.57;;
48052;SDS011;33824;51.600;5.718;2023-02-04T08:11:54;18.52;;;6.70;;
48052;SDS011;33824;51.600;5.718;2023-02-04T08:14:20;22.25;;;6.93;;
48052;SDS011;33824;51.600;5.718;2023-02-04T08:16:46;29.60;;;7.95;;
48052;SDS011;33824;51.600;5.718;2023-02-04T08:19:11;24.13;;;7.60;;
48052;SDS011;33824;51.600;5.718;2023-02-04T08:21:43;29.13;;;8.23;;
48052;SDS011;33824;51.600;5.718;2023-02-04T08:24:10;20.88;;;6.93;;
48052;SDS011;33824;51.600;5.718;2023-02-04T08:26:40;20.40;;;7.47;;
48052;SDS011;33824;51.600;5.718;2023-02-04T08:29:07;26.92;;;7.80;;
48052;SDS011;33824;51.600;5.718;2023-02-04T08:31:33;21.80;;;8.45;;
48052;SDS011;33824;51.600;5.718;2023-02-04T08:34:01;23.58;;;7.18;;
48052;SDS011;33824;51.600;5.718;2023-02-04T08:36:26;21.15;;;7.85;;
48052;SDS011;33824;51.600;5.718;2023-02-04T08:38:52;23.30;;;8.13;;
48052;SDS011;33824;51.600;5.718;2023-02-04T08:41:17;27.38;;;8.35;;
48052;SDS011;33824;51.600;5.718;2023-02-04T08:43:43;30.08;;;9.20;;
48052;SDS011;33824;51.600;5.718;2023-02-04T08:46:08;21.23;;;8.20;;
48052;SDS011;33824;51.600;5.718;2023-02-04T08:48:34;23.83;;;8.15;;
48052;SDS011;33824;51.600;5.718;2023-02-04T08:50:59;25.77;;;9.52;;
48052;SDS011;33824;51.600;5.718;2023-02-04T08:53:25;20.63;;;7.80;;
48052;SDS011;33824;51.600;5.718;2023-02-04T08:55:51;28.13;;;10.30;;
48052;SDS011;33824;51.600;5.718;2023-02-04T08:58:16;27.17;;;8.32;;
48052;SDS011;33824;51.600;5.718;2023-02-04T09:00:42;23.40;;;8.55;;
48052;SDS011;33824;51.600;5.718;2023-02-04T09:03:08;22.90;;;8.38;;
48052;SDS011;33824;51.600;5.718;2023-02-04T09:05:33;30.20;;;10.35;;
48052;SDS011;33824;51.600;5.718;2023-02-04T09:07:59;33.47;;;8.95;;
48052;SDS011;33824;51.600;5.718;2023-02-04T09:10:24;25.73;;;8.80;;
48052;SDS011;33824;51.600;5.718;2023-02-04T09:12:50;23.08;;;8.75;;
48052;SDS011;33824;51.600;5.718;2023-02-04T09:15:20;27.35;;;9.38;;
48052;SDS011;33824;51.600;5.718;2023-02-04T09:17:46;27.80;;;10.23;;
48052;SDS011;33824;51.600;5.718;2023-02-04T09:20:12;23.65;;;9.85;;
48052;SDS011;33824;51.600;5.718;2023-02-04T09:22:38;27.98;;;9.25;;
48052;SDS011;33824;51.600;5.718;2023-02-04T09:25:03;24.73;;;9.68;;
48052;SDS011;33824;51.600;5.718;2023-02-04T09:27:29;27.55;;;9.55;;
48052;SDS011;33824;51.600;5.718;2023-02-04T09:29:55;43.55;;;11.18;;
48052;SDS011;33824;51.600;5.718;2023-02-04T09:32:20;42.85;;;10.32;;
48052;SDS011;33824;51.600;5.718;2023-02-04T09:34:46;34.10;;;9.30;;
48052;SDS011;33824;51.600;5.718;2023-02-04T09:37:11;35.10;;;10.20;;
48052;SDS011;33824;51.600;5.718;2023-02-04T09:39:37;28.63;;;10.13;;
48052;SDS011;33824;51.600;5.718;2023-02-04T09:42:03;28.00;;;10.20;;
48052;SDS011;33824;51.600;5.718;2023-02-04T09:44:28;34.33;;;10.73;;
48052;SDS011;33824;51.600;5.718;2023-02-04T09:46:58;34.13;;;9.35;;
48052;SDS011;33824;51.600;5.718;2023-02-04T09:49:25;31.27;;;9.95;;
48052;SDS011;33824;51.600;5.718;2023-02-04T09:51:52;32.53;;;10.02;;
48052;SDS011;33824;51.600;5.718;2023-02-04T09:54:19;35.03;;;10.82;;
48052;SDS011;33824;51.600;5.718;2023-02-04T09:56:46;29.38;;;10.27;;
48052;SDS011;33824;51.600;5.718;2023-02-04T09:59:17;32.28;;;9.93;;
48052;SDS011;33824;51.600;5.718;2023-02-04T10:01:50;39.00;;;11.40;;
48052;SDS011;33824;51.600;5.718;2023-02-04T10:04:23;28.60;;;9.85;;
48052;SDS011;33824;51.600;5.718;2023-02-04T10:06:49;40.28;;;11.18;;
48052;SDS011;33824;51.600;5.718;2023-02-04T10:09:18;31.90;;;10.13;;
48052;SDS011;33824;51.600;5.718;2023-02-04T10:11:45;33.83;;;10.48;;
48052;SDS011;33824;51.600;5.718;2023-02-04T10:14:17;46.28;;;9.93;;
48052;SDS011;33824;51.600;5.718;2023-02-04T10:16:47;30.55;;;10.48;;
48052;SDS011;33824;51.600;5.718;2023-02-04T10:19:21;40.28;;;10.73;;
48052;SDS011;33824;51.600;5.718;2023-02-04T10:21:47;29.27;;;10.05;;
48052;SDS011;33824;51.600;5.718;2023-02-04T10:24:18;38.35;;;10.30;;
48052;SDS011;33824;51.600;5.718;2023-02-04T10:26:46;40.78;;;9.95;;
48052;SDS011;33824;51.600;5.718;2023-02-04T10:29:21;33.67;;;9.48;;
48052;SDS011;33824;51.600;5.718;2023-02-04T10:31:51;30.52;;;10.40;;
48052;SDS011;33824;51.600;5.718;2023-02-04T10:34:18;42.00;;;9.57;;
48052;SDS011;33824;51.600;5.718;2023-02-04T10:36:49;31.33;;;7.88;;
48052;SDS011;33824;51.600;5.718;2023-02-04T10:41:45;33.28;;;8.32;;
48052;SDS011;33824;51.600;5.718;2023-02-04T10:44:13;39.60;;;8.15;;
48052;SDS011;33824;51.600;5.718;2023-02-04T10:46:39;32.40;;;7.18;;
48052;SDS011;33824;51.600;5.718;2023-02-04T10:49:18;29.20;;;6.88;;
48052;SDS011;33824;51.600;5.718;2023-02-04T10:51:46;27.50;;;6.85;;
48052;SDS011;33824;51.600;5.718;2023-02-04T10:54:12;34.47;;;6.65;;
48052;SDS011;33824;51.600;5.718;2023-02-04T10:59:50;34.45;;;6.60;;
48052;SDS011;33824;51.600;5.718;2023-02-04T11:04:51;37.67;;;6.03;;
48052;SDS011;33824;51.600;5.718;2023-02-04T11:07:19;23.67;;;7.05;;
48052;SDS011;33824;51.600;5.718;2023-02-04T11:09:45;37.72;;;7.28;;
48052;SDS011;33824;51.600;5.718;2023-02-04T11:12:22;35.63;;;6.60;;
48052;SDS011;33824;51.600;5.718;2023-02-04T11:20:47;22.15;;;6.43;;
48052;SDS011;33824;51.600;5.718;2023-02-04T11:25:40;42.72;;;8.18;;
48052;SDS011;33824;51.600;5.718;2023-02-04T11:31:11;37.63;;;7.05;;
48052;SDS011;33824;51.600;5.718;2023-02-04T11:33:43;41.50;;;6.80;;
48052;SDS011;33824;51.600;5.718;2023-02-04T11:36:10;40.88;;;6.25;;
48052;SDS011;33824;51.600;5.718;2023-02-04T11:38:37;36.22;;;6.45;;
48052;SDS011;33824;51.600;5.718;2023-02-04T11:41:03;24.98;;;4.95;;
48052;SDS011;33824;51.600;5.718;2023-02-04T11:43:33;35.42;;;6.53;;
48052;SDS011;33824;51.600;5.718;2023-02-04T11:46:01;39.90;;;6.43;;
48052;SDS011;33824;51.600;5.718;2023-02-04T11:48:30;40.65;;;6.45;;
48052;SDS011;33824;51.600;5.718;2023-02-04T11:51:00;27.45;;;4.88;;
48052;SDS011;33824;51.600;5.718;2023-02-04T11:53:31;27.25;;;4.90;;
48052;SDS011;33824;51.600;5.718;2023-02-04T11:55:58;25.42;;;4.55;;
48052;SDS011;33824;51.600;5.718;2023-02-04T11:58:24;27.85;;;5.28;;
48052;SDS011;33824;51.600;5.718;2023-02-04T12:00:52;27.55;;;5.13;;
48052;SDS011;33824;51.600;5.718;2023-02-04T12:03:22;31.63;;;5.25;;
48052;SDS011;33824;51.600;5.718;2023-02-04T12:05:54;22.80;;;4.53;;
48052;SDS011;33824;51.600;5.718;2023-02-04T12:10:47;35.33;;;4.93;;
48052;SDS011;33824;51.600;5.718;2023-02-04T12:13:27;29.95;;;5.38;;
48052;SDS011;33824;51.600;5.718;2023-02-04T12:16:14;35.58;;;5.72;;
48052;SDS011;33824;51.600;5.718;2023-02-04T12:18:39;34.83;;;6.70;;
48052;SDS011;33824;51.600;5.718;2023-02-04T12:21:07;34.08;;;6.13;;
48052;SDS011;33824;51.600;5.718;2023-02-04T12:23:33;30.35;;;4.93;;
48052;SDS011;33824;51.600;5.718;2023-02-04T12:25:58;31.90;;;5.90;;
48052;SDS011;33824;51.600;5.718;2023-02-04T12:28:25;32.47;;;5.65;;
48052;SDS011;33824;51.600;5.718;2023-02-04T12:30:52;35.50;;;7.00;;
48052;SDS011;33824;51.600;5.718;2023-02-04T12:33:17;27.60;;;6.03;;
48052;SDS011;33824;51.600;5.718;2023-02-04T12:35:43;36.40;;;5.30;;
48052;SDS011;33824;51.600;5.718;2023-02-04T12:38:09;25.88;;;4.72;;
48052;SDS011;33824;51.600;5.718;2023-02-04T12:40:35;34.35;;;5.28;;
48052;SDS011;33824;51.600;5.718;2023-02-04T12:43:00;30.05;;;5.40;;
48052;SDS011;33824;51.600;5.718;2023-02-04T12:45:26;32.03;;;5.68;;
48052;SDS011;33824;51.600;5.718;2023-02-04T12:47:52;25.48;;;4.68;;
48052;SDS011;33824;51.600;5.718;2023-02-04T12:50:17;19.02;;;4.18;;
48052;SDS011;33824;51.600;5.718;2023-02-04T12:52:50;29.58;;;4.65;;
48052;SDS011;33824;51.600;5.718;2023-02-04T12:55:16;27.08;;;4.35;;
48052;SDS011;33824;51.600;5.718;2023-02-04T12:57:43;21.65;;;3.85;;
48052;SDS011;33824;51.600;5.718;2023-02-04T13:00:09;24.13;;;3.63;;
48052;SDS011;33824;51.600;5.718;2023-02-04T13:02:35;25.67;;;4.22;;
48052;SDS011;33824;51.600;5.718;2023-02-04T13:05:01;24.20;;;4.50;;
48052;SDS011;33824;51.600;5.718;2023-02-04T13:07:26;25.25;;;4.60;;
48052;SDS011;33824;51.600;5.718;2023-02-04T13:09:52;23.38;;;3.47;;
48052;SDS011;33824;51.600;5.718;2023-02-04T13:12:18;30.85;;;4.80;;
48052;SDS011;33824;51.600;5.718;2023-02-04T13:14:43;22.48;;;4.55;;
48052;SDS011;33824;51.600;5.718;2023-02-04T13:17:09;21.25;;;4.68;;
48052;SDS011;33824;51.600;5.718;2023-02-04T13:19:35;22.83;;;3.90;;
48052;SDS011;33824;51.600;5.718;2023-02-04T13:22:00;26.88;;;5.53;;
48052;SDS011;33824;51.600;5.718;2023-02-04T13:24:26;20.40;;;4.75;;
48052;SDS011;33824;51.600;5.718;2023-02-04T13:26:53;26.45;;;4.75;;
48052;SDS011;33824;51.600;5.718;2023-02-04T13:29:18;28.30;;;5.10;;
48052;SDS011;33824;51.600;5.718;2023-02-04T13:31:44;19.25;;;4.43;;
48052;SDS011;33824;51.600;5.718;2023-02-04T13:34:09;19.88;;;4.28;;
48052;SDS011;33824;51.600;5.718;2023-02-04T13:36:35;25.42;;;4.95;;
48052;SDS011;33824;51.600;5.718;2023-02-04T13:39:00;24.52;;;4.20;;
48052;SDS011;33824;51.600;5.718;2023-02-04T13:41:26;25.88;;;4.65;;
48052;SDS011;33824;51.600;5.718;2023-02-04T13:43:52;27.58;;;5.43;;
48052;SDS011;33824;51.600;5.718;2023-02-04T13:46:18;18.98;;;4.03;;
48052;SDS011;33824;51.600;5.718;2023-02-04T13:48:44;22.58;;;4.05;;
48052;SDS011;33824;51.600;5.718;2023-02-04T13:51:10;24.55;;;4.30;;
48052;SDS011;33824;51.600;5.718;2023-02-04T13:53:35;32.38;;;4.50;;
48052;SDS011;33824;51.600;5.718;2023-02-04T13:56:01;24.23;;;4.65;;
48052;SDS011;33824;51.600;5.718;2023-02-04T13:58:26;28.33;;;5.00;;
48052;SDS011;33824;51.600;5.718;2023-02-04T14:00:52;26.00;;;5.07;;
48052;SDS011;33824;51.600;5.718;2023-02-04T14:03:30;26.20;;;4.53;;
48052;SDS011;33824;51.600;5.718;2023-02-04T14:05:56;26.67;;;4.45;;
48052;SDS011;33824;51.600;5.718;2023-02-04T14:08:21;19.13;;;4.22;;
48052;SDS011;33824;51.600;5.718;2023-02-04T14:10:48;24.67;;;4.35;;
48052;SDS011;33824;51.600;5.718;2023-02-04T14:13:13;29.25;;;3.95;;
48052;SDS011;33824;51.600;5.718;2023-02-04T14:15:39;23.40;;;4.18;;
48052;SDS011;33824;51.600;5.718;2023-02-04T14:18:06;30.30;;;4.55;;
48052;SDS011;33824;51.600;5.718;2023-02-04T14:20:32;22.67;;;3.58;;
48052;SDS011;33824;51.600;5.718;2023-02-04T14:22:58;34.13;;;4.45;;
48052;SDS011;33824;51.600;5.718;2023-02-04T14:25:24;22.20;;;3.97;;
48052;SDS011;33824;51.600;5.718;2023-02-04T14:27:49;34.45;;;7.72;;
48052;SDS011;33824;51.600;5.718;2023-02-04T14:30:26;30.13;;;5.20;;
48052;SDS011;33824;51.600;5.718;2023-02-04T14:32:53;20.45;;;3.58;;
48052;SDS011;33824;51.600;5.718;2023-02-04T14:35:20;24.45;;;4.15;;
48052;SDS011;33824;51.600;5.718;2023-02-04T14:37:45;26.25;;;3.67;;
48052;SDS011;33824;51.600;5.718;2023-02-04T14:40:12;18.58;;;3.97;;
48052;SDS011;33824;51.600;5.718;2023-02-04T14:42:38;21.98;;;6.18;;
48052;SDS011;33824;51.600;5.718;2023-02-04T14:45:04;24.55;;;7.03;;
48052;SDS011;33824;51.600;5.718;2023-02-04T14:47:31;19.75;;;4.00;;
48052;SDS011;33824;51.600;5.718;2023-02-04T14:49:57;25.75;;;4.38;;
48052;SDS011;33824;51.600;5.718;2023-02-04T14:52:23;31.52;;;7.28;;